createdAt,value
2023-03-01T00:00:47.807Z,-2.19
2023-03-01T00:01:58.715Z,-2.17
2023-03-01T00:03:02.209Z,-2.20
2023-03-01T00:04:05.280Z,-2.20
2023-03-01T00:05:08.658Z,-2.19
2023-03-01T00:06:12.277Z,-2.21
2023-03-01T00:07:15.127Z,-2.23
2023-03-01T00:08:18.017Z,-2.22
2023-03-01T00:09:21.171Z,-2.22
2023-03-01T00:10:24.035Z,-2.23
2023-03-01T00:11:30.347Z,-2.24
2023-03-01T00:12:33.216Z,-2.22
2023-03-01T00:13:36.749Z,-2.21
2023-03-01T00:14:40.408Z,-2.22
2023-03-01T00:15:43.367Z,-2.18
2023-03-01T00:16:47.375Z,-2.22
2023-03-01T00:17:50.245Z,-2.20
2023-03-01T00:18:54.393Z,-2.20
2023-03-01T00:19:57.236Z,-2.20
2023-03-01T00:21:00.252Z,-2.19
2023-03-01T00:22:03.243Z,-2.19
2023-03-01T00:23:06.075Z,-2.16
2023-03-01T00:24:09.688Z,-2.16
2023-03-01T00:25:12.579Z,-2.16
2023-03-01T00:26:16.876Z,-2.15
2023-03-01T00:27:19.864Z,-2.16
2023-03-01T00:28:22.890Z,-2.13
2023-03-01T00:29:26.266Z,-2.15
2023-03-01T00:30:29.133Z,-2.14
2023-03-01T00:31:34.297Z,-2.12
2023-03-01T00:32:37.134Z,-2.15
2023-03-01T00:33:40.978Z,-2.14
2023-03-01T00:34:43.825Z,-2.10
2023-03-01T00:35:46.846Z,-2.12
2023-03-01T00:36:50.073Z,-2.10
2023-03-01T00:37:58.775Z,-2.09
2023-03-01T00:39:02.687Z,-2.09
2023-03-01T00:40:07.212Z,-2.07
2023-03-01T00:41:13.156Z,-2.08
2023-03-01T00:42:17.096Z,-2.07
2023-03-01T00:43:20.340Z,-2.09
2023-03-01T00:44:23.371Z,-2.07
2023-03-01T00:45:26.744Z,-2.02
2023-03-01T00:46:31.673Z,-2.02
2023-03-01T00:47:34.802Z,-2.03
2023-03-01T00:48:38.281Z,-2.02
2023-03-01T00:49:41.193Z,-1.97
2023-03-01T00:50:44.061Z,-1.99
2023-03-01T00:51:46.928Z,-1.98
2023-03-01T00:52:54.059Z,-1.97
2023-03-01T00:53:59.706Z,-1.94
2023-03-01T00:55:02.635Z,-1.96
2023-03-01T00:56:06.776Z,-1.94
2023-03-01T00:57:10.233Z,-1.93
2023-03-01T00:58:13.124Z,-1.90
2023-03-01T00:59:16.023Z,-1.88
2023-03-01T01:00:20.022Z,-1.90
2023-03-01T01:01:30.699Z,-1.86
2023-03-01T01:02:34.900Z,-1.86
2023-03-01T01:03:37.856Z,-1.86
2023-03-01T01:04:40.977Z,-1.88
2023-03-01T01:05:43.857Z,-1.90
2023-03-01T01:06:47.837Z,-1.88
2023-03-01T01:07:50.685Z,-1.89
2023-03-01T01:08:55.246Z,-1.90
2023-03-01T01:09:58.222Z,-1.89
2023-03-01T01:11:01.136Z,-1.91
2023-03-01T01:12:05.286Z,-1.90
2023-03-01T01:13:08.280Z,-1.90
2023-03-01T01:14:11.268Z,-1.91
2023-03-01T01:15:15.295Z,-1.90
2023-03-01T01:16:19.560Z,-1.90
2023-03-01T01:17:22.476Z,-1.91
2023-03-01T01:18:25.364Z,-1.93
2023-03-01T01:19:28.439Z,-1.90
2023-03-01T01:20:31.894Z,-1.90
2023-03-01T01:21:35.319Z,-1.94
2023-03-01T01:22:38.255Z,-1.93
2023-03-01T01:23:42.248Z,-1.96
2023-03-01T01:24:45.111Z,-1.94
2023-03-01T01:25:47.940Z,-1.95
2023-03-01T01:26:51.200Z,-1.96
2023-03-01T01:27:54.052Z,-1.95
2023-03-01T01:28:57.274Z,-1.92
2023-03-01T01:30:01.187Z,-1.93
2023-03-01T01:31:05.400Z,-1.96
2023-03-01T01:32:08.411Z,-1.93
2023-03-01T01:33:11.256Z,-1.95
2023-03-01T01:34:20.759Z,-1.91
2023-03-01T01:35:23.632Z,-1.93
2023-03-01T01:36:26.976Z,-1.91
2023-03-01T01:37:32.103Z,-1.90
2023-03-01T01:38:36.547Z,-1.87
2023-03-01T01:39:39.494Z,-1.91
2023-03-01T01:40:46.582Z,-1.91
2023-03-01T01:41:49.952Z,-1.92
2023-03-01T01:42:52.795Z,-1.91
2023-03-01T01:44:16.758Z,-1.91
2023-03-01T01:45:36.502Z,-1.89
2023-03-01T01:46:48.100Z,-1.90
2023-03-01T01:47:52.293Z,-1.94
2023-03-01T01:49:01.610Z,-1.95
2023-03-01T01:50:04.754Z,-1.95
2023-03-01T01:51:14.285Z,-1.91
2023-03-01T01:52:28.244Z,-1.92
2023-03-01T01:53:31.238Z,-1.94
2023-03-01T01:54:47.549Z,-1.97
2023-03-01T01:55:58.177Z,-1.96
2023-03-01T01:57:08.004Z,-1.95
2023-03-01T01:58:14.885Z,-1.96
2023-03-01T01:59:17.966Z,-1.96
2023-03-01T02:00:26.942Z,-1.96
2023-03-01T02:01:29.915Z,-1.96
2023-03-01T02:02:32.954Z,-1.99
2023-03-01T02:03:43.303Z,-2.00
2023-03-01T02:04:48.861Z,-1.99
2023-03-01T02:05:58.973Z,-2.02
2023-03-01T02:07:08.423Z,-2.00
2023-03-01T02:08:13.488Z,-1.99
2023-03-01T02:09:19.577Z,-2.00
2023-03-01T02:10:25.667Z,-2.00
2023-03-01T02:11:30.626Z,-2.00
2023-03-01T02:12:35.111Z,-2.02
2023-03-01T02:13:38.895Z,-2.02
2023-03-01T02:14:41.935Z,-2.02
2023-03-01T02:15:45.688Z,-2.04
2023-03-01T02:16:49.106Z,-2.02
2023-03-01T02:17:53.318Z,-2.05
2023-03-01T02:18:57.146Z,-2.05
2023-03-01T02:20:44.647Z,-2.03
2023-03-01T02:21:56.459Z,-2.04
2023-03-01T02:22:59.915Z,-2.05
2023-03-01T02:24:30.480Z,-2.06
2023-03-01T02:25:41.704Z,-2.07
2023-03-01T02:26:49.643Z,-2.07
2023-03-01T02:28:17.209Z,-2.07
2023-03-01T02:29:20.174Z,-2.08
2023-03-01T02:30:25.800Z,-2.11
2023-03-01T02:31:44.093Z,-2.08
2023-03-01T02:32:49.459Z,-2.11
2023-03-01T02:33:55.187Z,-2.10
2023-03-01T02:34:58.903Z,-2.12
2023-03-01T02:36:05.878Z,-2.15
2023-03-01T02:37:15.832Z,-2.12
2023-03-01T02:38:19.004Z,-2.13
2023-03-01T02:39:43.329Z,-2.16
2023-03-01T02:40:46.699Z,-2.17
2023-03-01T02:41:53.332Z,-2.18
2023-03-01T02:42:59.107Z,-2.18
2023-03-01T02:44:02.927Z,-2.19
2023-03-01T02:45:06.534Z,-2.18
2023-03-01T02:46:19.671Z,-2.19
2023-03-01T02:47:22.814Z,-2.15
2023-03-01T02:48:25.973Z,-2.17
2023-03-01T02:49:35.593Z,-2.17
2023-03-01T02:51:32.336Z,-2.12
2023-03-01T02:52:49.700Z,-2.16
2023-03-01T02:54:18.979Z,-2.12
2023-03-01T02:55:21.984Z,-2.15
2023-03-01T02:56:28.220Z,-2.15
2023-03-01T02:57:32.977Z,-2.14
2023-03-01T02:58:46.608Z,-2.18
2023-03-01T02:59:52.714Z,-2.17
2023-03-01T03:00:56.631Z,-2.14
2023-03-01T03:02:01.802Z,-2.15
2023-03-01T03:03:04.720Z,-2.17
2023-03-01T03:04:11.385Z,-2.14
2023-03-01T03:05:18.726Z,-2.17
2023-03-01T03:06:22.092Z,-2.15
2023-03-01T03:07:25.491Z,-2.18
2023-03-01T03:08:28.897Z,-2.17
2023-03-01T03:09:31.910Z,-2.16
2023-03-01T03:10:39.212Z,-2.16
2023-03-01T03:11:43.635Z,-2.17
2023-03-01T03:12:55.187Z,-2.19
2023-03-01T03:13:58.867Z,-2.17
2023-03-01T03:15:01.928Z,-2.18
2023-03-01T03:16:05.720Z,-2.19
2023-03-01T03:17:08.656Z,-2.22
2023-03-01T03:18:15.001Z,-2.22
2023-03-01T03:19:20.084Z,-2.22
2023-03-01T03:20:25.889Z,-2.20
2023-03-01T03:21:28.739Z,-2.19
2023-03-01T03:22:32.619Z,-2.20
2023-03-01T03:23:36.611Z,-2.21
2023-03-01T03:24:39.545Z,-2.19
2023-03-01T03:25:42.459Z,-2.20
2023-03-01T03:26:45.292Z,-2.20
2023-03-01T03:27:49.883Z,-2.16
2023-03-01T03:28:52.927Z,-2.20
2023-03-01T03:29:55.766Z,-2.19
2023-03-01T03:30:59.421Z,-2.18
2023-03-01T03:32:02.323Z,-2.20
2023-03-01T03:33:06.977Z,-2.20
2023-03-01T03:34:18.561Z,-2.19
2023-03-01T03:35:34.897Z,-2.18
2023-03-01T03:36:37.869Z,-2.12
2023-03-01T03:38:00.320Z,-2.14
2023-03-01T03:39:03.489Z,-2.10
2023-03-01T03:40:16.336Z,-2.10
2023-03-01T03:41:19.521Z,-2.07
2023-03-01T03:42:25.913Z,-2.07
2023-03-01T03:43:31.433Z,-2.05
2023-03-01T03:44:34.293Z,-2.05
2023-03-01T03:45:37.858Z,-2.04
2023-03-01T03:46:40.781Z,-2.06
2023-03-01T03:47:44.729Z,-2.04
2023-03-01T03:48:47.724Z,-2.06
2023-03-01T03:49:50.605Z,-2.04
2023-03-01T03:50:55.873Z,-2.05
2023-03-01T03:51:58.766Z,-2.00
2023-03-01T03:53:03.225Z,-1.99
2023-03-01T03:54:06.108Z,-2.00
2023-03-01T03:55:11.444Z,-1.98
2023-03-01T03:56:14.749Z,-1.96
2023-03-01T03:57:17.594Z,-1.99
2023-03-01T03:58:24.712Z,-2.00
2023-03-01T03:59:27.868Z,-1.96
2023-03-01T04:00:30.783Z,-1.99
2023-03-01T04:01:33.697Z,-2.00
2023-03-01T04:02:37.111Z,-2.01
2023-03-01T04:03:40.087Z,-1.98
2023-03-01T04:04:42.923Z,-1.99
2023-03-01T04:05:46.681Z,-2.03
2023-03-01T04:06:49.713Z,-2.00
2023-03-01T04:08:02.115Z,-1.98
2023-03-01T04:09:05.151Z,-2.00
2023-03-01T04:10:11.933Z,-1.97
2023-03-01T04:11:29.669Z,-1.96
2023-03-01T04:12:35.105Z,-1.95
2023-03-01T04:13:38.056Z,-1.98
2023-03-01T04:14:41.061Z,-1.94
2023-03-01T04:15:44.503Z,-1.95
2023-03-01T04:16:47.399Z,-1.97
2023-03-01T04:17:50.985Z,-1.97
2023-03-01T04:18:54.610Z,-1.96
2023-03-01T04:19:57.564Z,-1.90
2023-03-01T04:21:00.431Z,-1.93
2023-03-01T04:22:10.377Z,-1.91
2023-03-01T04:23:16.848Z,-1.89
2023-03-01T04:24:20.036Z,-1.90
2023-03-01T04:25:22.952Z,-1.90
2023-03-01T04:26:28.367Z,-1.90
2023-03-01T04:27:31.436Z,-1.88
2023-03-01T04:28:41.431Z,-1.92
2023-03-01T04:29:44.295Z,-1.91
2023-03-01T04:30:47.188Z,-1.91
2023-03-01T04:31:50.509Z,-1.93
2023-03-01T04:32:53.408Z,-1.94
2023-03-01T04:33:56.980Z,-1.94
2023-03-01T04:35:00.096Z,-1.93
2023-03-01T04:36:06.445Z,-1.94
2023-03-01T04:37:10.038Z,-1.90
2023-03-01T04:38:12.901Z,-1.90
2023-03-01T04:39:15.780Z,-1.92
2023-03-01T04:40:18.698Z,-1.92
2023-03-01T04:41:24.960Z,-1.93
2023-03-01T04:42:27.852Z,-1.89
2023-03-01T04:43:30.900Z,-1.93
2023-03-01T04:44:33.772Z,-1.93
2023-03-01T04:45:37.226Z,-1.93
2023-03-01T04:46:40.625Z,-1.93
2023-03-01T04:47:45.516Z,-1.91
2023-03-01T04:48:48.610Z,-1.87
2023-03-01T04:49:51.452Z,-1.90
2023-03-01T04:50:54.301Z,-1.90
2023-03-01T04:51:59.372Z,-1.89
2023-03-01T04:53:02.404Z,-1.86
2023-03-01T04:54:06.402Z,-1.87
2023-03-01T04:55:10.540Z,-1.85
2023-03-01T04:56:17.005Z,-1.86
2023-03-01T04:57:19.841Z,-1.87
2023-03-01T04:58:27.515Z,-1.87
2023-03-01T04:59:30.505Z,-1.87
2023-03-01T05:00:33.349Z,-1.86
2023-03-01T05:01:37.979Z,-1.87
2023-03-01T05:02:40.878Z,-1.86
2023-03-01T05:03:49.085Z,-1.83
2023-03-01T05:04:52.330Z,-1.83
2023-03-01T05:05:55.227Z,-1.85
2023-03-01T05:06:59.851Z,-1.85
2023-03-01T05:08:06.149Z,-1.85
2023-03-01T05:09:09.035Z,-1.83
2023-03-01T05:10:11.909Z,-1.84
2023-03-01T05:11:15.029Z,-1.82
2023-03-01T05:12:18.013Z,-1.80
2023-03-01T05:13:22.308Z,-1.81
2023-03-01T05:14:25.610Z,-1.82
2023-03-01T05:15:31.517Z,-1.81
2023-03-01T05:16:36.554Z,-1.76
2023-03-01T05:17:39.763Z,-1.75
2023-03-01T05:18:42.847Z,-1.75
2023-03-01T05:19:45.871Z,-1.77
2023-03-01T05:20:48.689Z,-1.75
2023-03-01T05:22:03.262Z,-1.73
2023-03-01T05:23:08.987Z,-1.73
2023-03-01T05:24:12.766Z,-1.70
2023-03-01T05:25:15.733Z,-1.73
2023-03-01T05:26:28.339Z,-1.70
2023-03-01T05:27:32.104Z,-1.68
2023-03-01T05:28:35.627Z,-1.70
2023-03-01T05:29:40.506Z,-1.72
2023-03-01T05:30:43.575Z,-1.70
2023-03-01T05:31:46.481Z,-1.69
2023-03-01T05:32:56.788Z,-1.71
2023-03-01T05:33:59.995Z,-1.69
2023-03-01T05:35:02.866Z,-1.69
2023-03-01T05:36:08.306Z,-1.67
2023-03-01T05:37:11.251Z,-1.64
2023-03-01T05:38:14.424Z,-1.64
2023-03-01T05:39:17.293Z,-1.65
2023-03-01T05:40:22.286Z,-1.63
2023-03-01T05:41:25.359Z,-1.64
2023-03-01T05:42:28.187Z,-1.61
2023-03-01T05:43:35.446Z,-1.64
2023-03-01T05:44:38.642Z,-1.61
2023-03-01T05:45:42.823Z,-1.60
2023-03-01T05:46:46.069Z,-1.59
2023-03-01T05:47:50.687Z,-1.59
2023-03-01T05:48:53.860Z,-1.59
2023-03-01T05:49:56.738Z,-1.58
2023-03-01T05:51:01.760Z,-1.57
2023-03-01T05:52:04.738Z,-1.57
2023-03-01T05:53:15.085Z,-1.55
2023-03-01T05:54:18.925Z,-1.54
2023-03-01T05:55:23.191Z,-1.54
2023-03-01T05:56:26.175Z,-1.53
2023-03-01T05:57:30.926Z,-1.52
2023-03-01T05:58:33.860Z,-1.51
2023-03-01T05:59:36.716Z,-1.50
2023-03-01T06:00:39.720Z,-1.49
2023-03-01T06:01:42.788Z,-1.48
2023-03-01T06:02:46.116Z,-1.46
2023-03-01T06:03:49.268Z,-1.46
2023-03-01T06:04:52.217Z,-1.44
2023-03-01T06:05:59.519Z,-1.42
2023-03-01T06:07:02.460Z,-1.42
2023-03-01T06:08:05.460Z,-1.38
2023-03-01T06:09:10.231Z,-1.39
2023-03-01T06:10:14.198Z,-1.34
2023-03-01T06:11:17.194Z,-1.32
2023-03-01T06:12:21.258Z,-1.31
2023-03-01T06:13:25.058Z,-1.27
2023-03-01T06:14:27.931Z,-1.24
2023-03-01T06:15:31.188Z,-1.21
2023-03-01T06:16:34.173Z,-1.20
2023-03-01T06:17:40.706Z,-1.17
2023-03-01T06:18:44.748Z,-1.13
2023-03-01T06:19:48.349Z,-1.08
2023-03-01T06:20:56.381Z,-1.04
2023-03-01T06:22:00.337Z,-0.99
2023-03-01T06:23:04.336Z,-0.96
2023-03-01T06:24:09.579Z,-0.93
2023-03-01T06:25:16.022Z,-0.90
2023-03-01T06:26:19.099Z,-0.85
2023-03-01T06:27:23.214Z,-0.81
2023-03-01T06:28:27.525Z,-0.80
2023-03-01T06:29:31.800Z,-0.73
2023-03-01T06:30:34.788Z,-0.65
2023-03-01T06:31:37.713Z,-0.63
2023-03-01T06:32:44.812Z,-0.60
2023-03-01T06:33:47.717Z,-0.55
2023-03-01T06:34:51.039Z,-0.49
2023-03-01T06:35:57.689Z,-0.47
2023-03-01T06:37:03.781Z,-0.42
2023-03-01T06:38:07.206Z,-0.36
2023-03-01T06:39:10.187Z,-0.32
2023-03-01T06:40:14.868Z,-0.28
2023-03-01T06:41:18.850Z,-0.22
2023-03-01T06:42:21.768Z,-0.19
2023-03-01T06:43:25.253Z,-0.12
2023-03-01T06:44:28.546Z,-0.09
2023-03-01T06:45:31.528Z,-0.04
2023-03-01T06:46:35.572Z,0.00
2023-03-01T06:47:40.031Z,0.05
2023-03-01T06:48:44.030Z,0.05
2023-03-01T06:49:47.006Z,0.06
2023-03-01T06:50:50.093Z,0.08
2023-03-01T06:51:53.162Z,0.11
2023-03-01T06:52:58.331Z,0.13
2023-03-01T06:54:02.394Z,0.15
2023-03-01T06:55:06.196Z,0.15
2023-03-01T06:56:10.287Z,0.16
2023-03-01T06:57:13.200Z,0.18
2023-03-01T06:58:16.247Z,0.22
2023-03-01T06:59:19.573Z,0.26
2023-03-01T07:00:23.008Z,0.30
2023-03-01T07:01:26.579Z,0.32
2023-03-01T07:02:29.628Z,0.33
2023-03-01T07:04:34.920Z,0.36
2023-03-01T07:05:38.198Z,0.38
2023-03-01T07:06:41.488Z,0.40
2023-03-01T07:07:45.893Z,0.42
2023-03-01T07:08:49.900Z,0.42
2023-03-01T07:09:54.406Z,0.46
2023-03-01T07:10:59.744Z,0.48
2023-03-01T07:12:04.604Z,0.51
2023-03-01T07:13:09.381Z,0.53
2023-03-01T07:14:12.286Z,0.55
2023-03-01T07:15:16.349Z,0.55
2023-03-01T07:16:19.354Z,0.59
2023-03-01T07:17:22.305Z,0.61
2023-03-01T07:18:25.503Z,0.63
2023-03-01T07:19:28.749Z,0.63
2023-03-01T07:20:31.641Z,0.66
2023-03-01T07:21:34.523Z,0.68
2023-03-01T07:22:37.352Z,0.68
2023-03-01T07:23:40.569Z,0.71
2023-03-01T07:24:44.186Z,0.74
2023-03-01T07:25:54.239Z,0.76
2023-03-01T07:26:57.179Z,0.79
2023-03-01T07:28:00.254Z,0.82
2023-03-01T07:29:05.307Z,0.84
2023-03-01T07:30:09.211Z,0.87
2023-03-01T07:31:12.167Z,0.91
2023-03-01T07:32:15.233Z,0.93
2023-03-01T07:33:19.070Z,0.98
2023-03-01T07:34:22.316Z,1.02
2023-03-01T07:35:27.582Z,1.07
2023-03-01T07:36:30.787Z,1.10
2023-03-01T07:37:34.011Z,1.13
2023-03-01T07:38:36.989Z,1.15
2023-03-01T07:39:40.304Z,1.16
2023-03-01T07:40:43.244Z,1.20
2023-03-01T07:41:46.122Z,1.22
2023-03-01T07:42:49.103Z,1.25
2023-03-01T07:43:52.182Z,1.26
2023-03-01T07:44:55.045Z,1.28
2023-03-01T07:46:02.705Z,1.31
2023-03-01T07:47:06.120Z,1.34
2023-03-01T07:48:09.060Z,1.36
2023-03-01T07:49:12.073Z,1.40
2023-03-01T07:50:15.153Z,1.44
2023-03-01T07:51:19.385Z,1.46
2023-03-01T07:52:24.077Z,1.50
2023-03-01T07:53:27.237Z,1.53
2023-03-01T07:54:30.129Z,1.56
2023-03-01T07:55:33.005Z,1.59
2023-03-01T07:56:36.370Z,1.60
2023-03-01T07:57:40.080Z,1.61
2023-03-01T07:58:44.918Z,1.63
2023-03-01T07:59:47.983Z,1.66
2023-03-01T08:00:50.853Z,1.69
2023-03-01T08:01:53.803Z,1.72
2023-03-01T08:03:00.945Z,1.75
2023-03-01T08:04:05.823Z,1.81
2023-03-01T08:05:10.477Z,1.86
2023-03-01T08:06:15.676Z,1.89
2023-03-01T08:07:18.649Z,1.95
2023-03-01T08:08:21.513Z,2.00
2023-03-01T08:09:24.387Z,2.04
2023-03-01T08:10:27.419Z,2.08
2023-03-01T08:11:30.362Z,2.12
2023-03-01T08:12:33.420Z,2.18
2023-03-01T08:13:36.396Z,2.22
2023-03-01T08:14:39.580Z,2.25
2023-03-01T08:15:42.358Z,2.28
2023-03-01T08:16:45.359Z,2.31
2023-03-01T08:17:50.453Z,2.35
2023-03-01T08:18:53.635Z,2.40
2023-03-01T08:19:56.608Z,2.46
2023-03-01T08:21:07.679Z,2.52
2023-03-01T08:22:10.558Z,2.57
2023-03-01T08:23:13.745Z,2.62
2023-03-01T08:24:16.927Z,2.67
2023-03-01T08:25:19.989Z,2.72
2023-03-01T08:26:23.488Z,2.78
2023-03-01T08:27:26.356Z,2.83
2023-03-01T08:28:29.224Z,2.88
2023-03-01T08:29:32.508Z,2.94
2023-03-01T08:30:36.105Z,2.99
2023-03-01T08:31:41.139Z,3.06
2023-03-01T08:32:44.170Z,3.14
2023-03-01T08:33:56.593Z,3.22
2023-03-01T08:34:59.586Z,3.30
2023-03-01T08:36:07.963Z,3.36
2023-03-01T08:37:10.938Z,3.40
2023-03-01T08:38:13.767Z,3.44
2023-03-01T08:39:19.473Z,3.49
2023-03-01T08:40:22.401Z,3.56
2023-03-01T08:41:25.424Z,3.62
2023-03-01T08:42:28.420Z,3.69
2023-03-01T08:43:32.220Z,3.74
2023-03-01T08:44:36.192Z,3.79
2023-03-01T08:45:39.246Z,3.85
2023-03-01T08:46:44.415Z,3.88
2023-03-01T08:47:47.391Z,3.92
2023-03-01T08:48:50.249Z,3.99
2023-03-01T08:49:53.940Z,4.05
2023-03-01T08:50:57.123Z,4.12
2023-03-01T08:51:59.996Z,4.16
2023-03-01T08:53:02.874Z,4.18
2023-03-01T08:54:07.791Z,4.23
2023-03-01T08:55:10.873Z,4.27
2023-03-01T08:56:15.020Z,4.33
2023-03-01T08:57:17.953Z,4.38
2023-03-01T08:58:20.926Z,4.45
2023-03-01T08:59:23.812Z,4.51
2023-03-01T09:00:26.893Z,4.59
2023-03-01T09:01:30.269Z,4.67
2023-03-01T09:02:33.280Z,4.76
2023-03-01T09:03:37.044Z,4.83
2023-03-01T09:04:40.547Z,4.90
2023-03-01T09:05:43.502Z,4.96
2023-03-01T09:06:46.582Z,4.96
2023-03-01T09:07:49.453Z,4.98
2023-03-01T09:08:52.366Z,5.05
2023-03-01T09:09:56.345Z,5.13
2023-03-01T09:10:59.204Z,5.21
2023-03-01T09:12:02.795Z,5.30
2023-03-01T09:13:05.680Z,5.37
2023-03-01T09:14:08.561Z,5.44
2023-03-01T09:15:14.682Z,5.49
2023-03-01T09:16:20.286Z,5.55
2023-03-01T09:17:23.209Z,5.63
2023-03-01T09:18:26.097Z,5.68
2023-03-01T09:19:28.955Z,5.70
2023-03-01T09:20:33.058Z,5.68
2023-03-01T09:21:40.539Z,5.63
2023-03-01T09:22:45.056Z,5.64
2023-03-01T09:23:49.569Z,5.69
2023-03-01T09:24:52.540Z,5.73
2023-03-01T09:25:55.418Z,5.72
2023-03-01T09:26:58.719Z,5.71
2023-03-01T09:28:01.777Z,5.75
2023-03-01T09:29:04.661Z,5.78
2023-03-01T09:30:08.622Z,5.84
2023-03-01T09:31:13.906Z,5.89
2023-03-01T09:32:17.092Z,5.96
2023-03-01T09:33:20.559Z,6.05
2023-03-01T09:34:24.549Z,6.10
2023-03-01T09:35:27.530Z,6.17
2023-03-01T09:36:30.745Z,6.21
2023-03-01T09:37:35.437Z,6.24
2023-03-01T09:38:38.440Z,6.27
2023-03-01T09:39:41.377Z,6.32
2023-03-01T09:40:47.427Z,6.33
2023-03-01T09:42:12.933Z,6.33
2023-03-01T09:43:25.020Z,6.31
2023-03-01T09:45:01.196Z,6.31
2023-03-01T09:46:07.385Z,6.29
2023-03-01T09:47:17.307Z,6.30
2023-03-01T09:48:24.971Z,6.35
2023-03-01T09:49:41.341Z,6.36
2023-03-01T09:50:47.721Z,6.33
2023-03-01T09:52:20.351Z,6.34
2023-03-01T09:53:32.162Z,6.33
2023-03-01T09:54:35.134Z,6.33
2023-03-01T09:55:46.979Z,6.36
2023-03-01T09:57:14.475Z,6.38
2023-03-01T09:58:43.149Z,6.35
2023-03-01T10:00:26.376Z,6.32
2023-03-01T10:01:42.369Z,6.34
2023-03-01T10:02:52.090Z,6.37
2023-03-01T10:04:14.043Z,6.40
2023-03-01T10:05:23.635Z,6.45
2023-03-01T10:06:34.857Z,6.53
2023-03-01T10:07:56.119Z,6.64
2023-03-01T10:09:11.895Z,6.71
2023-03-01T10:10:34.693Z,6.73
2023-03-01T10:11:42.946Z,6.77
2023-03-01T10:12:46.852Z,6.83
2023-03-01T10:13:55.302Z,6.93
2023-03-01T10:15:16.590Z,7.09
2023-03-01T10:16:38.153Z,7.25
2023-03-01T10:17:48.197Z,7.38
2023-03-01T10:18:59.609Z,7.49
2023-03-01T10:20:17.770Z,7.54
2023-03-01T10:21:21.794Z,7.54
2023-03-01T10:22:32.878Z,7.53
2023-03-01T10:23:37.079Z,7.56
2023-03-01T10:24:40.145Z,7.58
2023-03-01T10:25:57.047Z,7.63
2023-03-01T10:27:18.543Z,7.66
2023-03-01T10:28:30.857Z,7.65
2023-03-01T10:29:45.811Z,7.66
2023-03-01T10:30:48.804Z,7.66
2023-03-01T10:31:54.231Z,7.70
2023-03-01T10:32:58.941Z,7.76
2023-03-01T10:34:02.739Z,7.77
2023-03-01T10:35:25.071Z,7.71
2023-03-01T10:36:27.943Z,7.78
2023-03-01T10:37:31.015Z,7.86
2023-03-01T10:38:56.223Z,7.95
2023-03-01T10:40:11.873Z,8.06
2023-03-01T10:41:14.968Z,8.16
2023-03-01T10:42:26.995Z,8.25
2023-03-01T10:43:44.686Z,8.28
2023-03-01T10:44:50.257Z,8.28
2023-03-01T10:45:53.415Z,8.29
2023-03-01T10:47:02.768Z,8.35
2023-03-01T10:48:14.676Z,8.43
2023-03-01T10:49:23.324Z,8.44
2023-03-01T10:50:26.291Z,8.45
2023-03-01T10:51:29.776Z,8.50
2023-03-01T10:52:36.581Z,8.53
2023-03-01T10:53:43.724Z,8.51
2023-03-01T10:54:56.325Z,8.51
2023-03-01T10:56:05.239Z,8.54
2023-03-01T10:57:30.343Z,8.54
2023-03-01T10:58:35.337Z,8.53
2023-03-01T10:59:40.074Z,8.51
2023-03-01T11:00:55.448Z,8.51
2023-03-01T11:02:23.408Z,8.44
2023-03-01T11:03:31.989Z,8.37
2023-03-01T11:04:34.939Z,8.39
2023-03-01T11:05:38.012Z,8.39
2023-03-01T11:06:42.590Z,8.42
2023-03-01T11:07:54.756Z,8.40
2023-03-01T11:08:57.961Z,8.44
2023-03-01T11:10:01.132Z,8.45
2023-03-01T11:11:36.284Z,8.50
2023-03-01T11:12:39.614Z,8.58
2023-03-01T11:14:26.394Z,8.62
2023-03-01T11:15:30.414Z,8.61
2023-03-01T11:16:36.832Z,8.59
2023-03-01T11:17:54.522Z,8.54
2023-03-01T11:19:14.814Z,8.47
2023-03-01T11:20:30.594Z,8.42
2023-03-01T11:21:35.698Z,8.41
2023-03-01T11:22:47.123Z,8.41
2023-03-01T11:23:50.005Z,8.43
2023-03-01T11:25:09.015Z,8.47
2023-03-01T11:26:14.348Z,8.53
2023-03-01T11:27:29.449Z,8.54
2023-03-01T11:28:33.856Z,8.49
2023-03-01T11:29:48.453Z,8.41
2023-03-01T11:31:07.543Z,8.31
2023-03-01T11:32:14.677Z,8.28
2023-03-01T11:33:49.443Z,8.32
2023-03-01T11:34:59.061Z,8.38
2023-03-01T11:36:16.896Z,8.42
2023-03-01T11:37:57.734Z,8.49
2023-03-01T11:39:18.423Z,8.51
2023-03-01T11:40:56.037Z,8.49
2023-03-01T11:42:19.049Z,8.49
2023-03-01T11:43:40.670Z,8.55
2023-03-01T11:44:46.106Z,8.60
2023-03-01T11:45:59.935Z,8.64
2023-03-01T11:47:02.919Z,8.64
2023-03-01T11:48:49.298Z,8.59
2023-03-01T11:50:02.189Z,8.56
2023-03-01T11:51:15.101Z,8.56
2023-03-01T11:52:18.516Z,8.57
2023-03-01T11:53:44.258Z,8.55
2023-03-01T11:55:02.497Z,8.54
2023-03-01T11:56:25.561Z,8.58
2023-03-01T11:57:42.375Z,8.62
2023-03-01T11:58:48.863Z,8.67
2023-03-01T12:00:15.904Z,8.71
2023-03-01T12:01:37.248Z,8.73
2023-03-01T12:02:52.883Z,8.67
2023-03-01T12:04:08.030Z,8.61
2023-03-01T12:05:50.035Z,8.56
2023-03-01T12:07:02.444Z,8.52
2023-03-01T12:08:13.866Z,8.46
2023-03-01T12:09:45.867Z,8.41
2023-03-01T12:11:00.850Z,8.36
2023-03-01T12:12:27.251Z,8.33
2023-03-01T12:13:51.018Z,8.30
2023-03-01T12:15:09.252Z,8.30
2023-03-01T12:16:16.257Z,8.28
2023-03-01T12:17:28.366Z,8.22
2023-03-01T12:18:53.300Z,8.20
2023-03-01T12:20:31.813Z,8.23
2023-03-01T12:21:49.637Z,8.41
2023-03-01T12:23:30.602Z,8.64
2023-03-01T12:24:33.576Z,8.85
2023-03-01T12:25:59.286Z,8.98
2023-03-01T12:27:53.667Z,9.14
2023-03-01T12:29:21.153Z,9.31
2023-03-01T12:30:53.277Z,9.46
2023-03-01T12:32:35.391Z,9.60
2023-03-01T12:33:58.322Z,9.80
2023-03-01T12:35:25.665Z,10.04
2023-03-01T12:36:43.594Z,10.16
2023-03-01T12:38:14.432Z,10.21
2023-03-01T12:39:51.803Z,10.40
2023-03-01T12:41:15.260Z,10.62
2023-03-01T12:42:18.023Z,10.77
2023-03-01T12:43:35.352Z,10.92
2023-03-01T12:44:59.657Z,11.12
2023-03-01T12:46:05.808Z,11.34
2023-03-01T12:47:26.868Z,11.42
2023-03-01T12:48:36.562Z,11.47
2023-03-01T12:49:42.242Z,11.55
2023-03-01T12:50:49.550Z,11.59
2023-03-01T12:52:03.975Z,11.62
2023-03-01T12:53:18.245Z,11.67
2023-03-01T12:54:29.157Z,11.79
2023-03-01T12:55:42.013Z,11.92
2023-03-01T12:56:53.509Z,12.14
2023-03-01T12:57:59.237Z,12.24
2023-03-01T12:59:19.587Z,12.41
2023-03-01T13:00:42.095Z,12.48
2023-03-01T13:01:54.035Z,12.49
2023-03-01T13:03:16.435Z,12.44
2023-03-01T13:04:26.305Z,12.31
2023-03-01T13:05:41.479Z,12.22
2023-03-01T13:07:12.474Z,12.06
2023-03-01T13:08:29.289Z,11.85
2023-03-01T13:09:56.015Z,11.63
2023-03-01T13:11:05.292Z,11.39
2023-03-01T13:12:43.555Z,11.17
2023-03-01T13:13:47.728Z,11.00
2023-03-01T13:14:55.444Z,10.91
2023-03-01T13:16:18.790Z,10.85
2023-03-01T13:17:49.195Z,10.75
2023-03-01T13:19:09.573Z,10.54
2023-03-01T13:20:25.489Z,10.27
2023-03-01T13:21:32.600Z,10.06
2023-03-01T13:22:44.238Z,9.91
2023-03-01T13:23:52.912Z,9.79
2023-03-01T13:25:27.680Z,9.66
2023-03-01T13:27:06.894Z,9.47
2023-03-01T13:28:37.891Z,9.23
2023-03-01T13:29:46.789Z,9.09
2023-03-01T13:30:49.637Z,8.99
2023-03-01T13:31:52.583Z,8.93
2023-03-01T13:33:24.433Z,8.89
2023-03-01T13:34:48.849Z,8.82
2023-03-01T13:35:51.914Z,8.73
2023-03-01T13:37:10.198Z,8.65
2023-03-01T13:38:47.278Z,8.58
2023-03-01T13:39:50.256Z,8.53
2023-03-01T13:40:53.132Z,8.48
2023-03-01T13:41:58.684Z,8.43
2023-03-01T13:43:29.502Z,8.38
2023-03-01T13:44:39.788Z,8.30
2023-03-01T13:45:44.538Z,8.29
2023-03-01T13:46:48.640Z,8.27
2023-03-01T13:47:59.353Z,8.22
2023-03-01T13:49:02.506Z,8.16
2023-03-01T13:50:07.424Z,8.08
2023-03-01T13:51:13.288Z,8.01
2023-03-01T13:52:33.147Z,7.94
2023-03-01T13:53:40.948Z,7.88
2023-03-01T13:54:44.014Z,7.83
2023-03-01T13:55:50.670Z,7.78
2023-03-01T13:56:55.108Z,7.72
2023-03-01T13:58:00.844Z,7.71
2023-03-01T13:59:07.639Z,7.75
2023-03-01T14:00:27.568Z,7.75
2023-03-01T14:01:33.564Z,7.74
2023-03-01T14:02:37.829Z,7.73
2023-03-01T14:03:43.912Z,7.72
2023-03-01T14:04:58.011Z,7.72
2023-03-01T14:06:19.756Z,7.72
2023-03-01T14:07:25.575Z,7.70
2023-03-01T14:08:30.488Z,7.68
2023-03-01T14:09:37.066Z,7.67
2023-03-01T14:10:54.051Z,7.67
2023-03-01T14:12:31.173Z,7.67
2023-03-01T14:14:08.609Z,7.68
2023-03-01T14:15:28.541Z,7.68
2023-03-01T14:17:08.470Z,7.68
2023-03-01T14:18:27.693Z,7.68
2023-03-01T14:19:34.077Z,7.67
2023-03-01T14:20:44.116Z,7.71
2023-03-01T14:21:47.660Z,7.70
2023-03-01T14:22:54.899Z,7.73
2023-03-01T14:23:59.062Z,7.73
2023-03-01T14:25:17.695Z,7.74
2023-03-01T14:26:24.865Z,7.72
2023-03-01T14:27:34.548Z,7.72
2023-03-01T14:28:39.982Z,7.75
2023-03-01T14:29:43.116Z,7.78
2023-03-01T14:30:57.096Z,7.88
2023-03-01T14:32:14.194Z,8.03
2023-03-01T14:33:30.211Z,8.12
2023-03-01T14:34:33.865Z,8.30
2023-03-01T14:35:38.055Z,8.51
2023-03-01T14:36:41.016Z,8.75
2023-03-01T14:37:43.939Z,8.98
2023-03-01T14:38:48.517Z,9.13
2023-03-01T14:39:51.991Z,9.16
2023-03-01T14:41:00.122Z,9.15
2023-03-01T14:42:15.303Z,9.13
2023-03-01T14:43:23.712Z,9.14
2023-03-01T14:44:26.733Z,9.12
2023-03-01T14:45:31.892Z,9.06
2023-03-01T14:46:40.146Z,8.96
2023-03-01T14:47:45.596Z,8.87
2023-03-01T14:49:02.196Z,8.77
2023-03-01T14:50:19.294Z,8.64